createdAt,value
2022-11-29T00:02:23.122Z,10.32
2022-11-29T00:04:50.363Z,9.07
2022-11-29T00:07:17.332Z,8.13
2022-11-29T00:09:44.388Z,7.22
2022-11-29T00:12:14.228Z,8.60
2022-11-29T00:14:41.987Z,8.98
2022-11-29T00:17:09.220Z,8.32
2022-11-29T00:19:36.417Z,9.45
2022-11-29T00:22:03.830Z,7.78
2022-11-29T00:24:32.696Z,9.95
2022-11-29T00:26:59.910Z,7.82
2022-11-29T00:29:27.447Z,8.77
2022-11-29T00:31:54.467Z,9.25
2022-11-29T00:34:21.481Z,8.27
2022-11-29T00:36:48.510Z,7.25
2022-11-29T00:39:16.550Z,9.57
2022-11-29T00:41:43.623Z,8.52
2022-11-29T00:44:15.261Z,7.95
2022-11-29T00:46:45.531Z,8.43
2022-11-29T00:49:12.466Z,7.43
2022-11-29T00:51:39.465Z,8.30
2022-11-29T00:54:06.469Z,6.35
2022-11-29T00:56:33.465Z,8.80
2022-11-29T00:59:00.415Z,9.18
2022-11-29T01:01:27.476Z,9.63
2022-11-29T01:03:54.525Z,9.45
2022-11-29T01:06:21.562Z,8.27
2022-11-29T01:08:49.742Z,8.43
2022-11-29T01:11:20.725Z,7.43
2022-11-29T01:13:48.016Z,7.45
2022-11-29T01:16:15.488Z,7.38
2022-11-29T01:18:42.798Z,10.50
2022-11-29T01:21:14.575Z,10.82
2022-11-29T01:23:41.830Z,8.55
2022-11-29T01:26:13.089Z,11.05
2022-11-29T01:28:40.345Z,7.97
2022-11-29T01:31:08.933Z,8.40
2022-11-29T01:33:36.339Z,8.27
2022-11-29T01:36:03.359Z,7.07
2022-11-29T01:38:30.591Z,7.93
2022-11-29T01:41:01.551Z,7.50
2022-11-29T01:43:28.943Z,7.75
2022-11-29T01:45:56.288Z,8.32
2022-11-29T01:48:32.050Z,7.78
2022-11-29T01:51:00.886Z,7.22
2022-11-29T01:53:28.225Z,8.18
2022-11-29T01:55:58.081Z,7.60
2022-11-29T01:58:25.145Z,8.95
2022-11-29T02:00:52.212Z,6.82
2022-11-29T02:03:19.494Z,8.48
2022-11-29T02:05:49.316Z,8.15
2022-11-29T02:08:20.570Z,7.18
2022-11-29T02:10:59.779Z,6.45
2022-11-29T02:13:30.082Z,8.85
2022-11-29T02:16:25.453Z,6.68
2022-11-29T02:19:04.633Z,7.47
2022-11-29T02:21:45.117Z,7.07
2022-11-29T02:24:43.067Z,7.05
2022-11-29T02:27:16.605Z,8.73
2022-11-29T02:30:09.147Z,7.35
2022-11-29T02:33:08.783Z,7.03
2022-11-29T02:35:57.561Z,7.70
2022-11-29T02:38:33.562Z,6.28
2022-11-29T02:41:03.449Z,7.00
2022-11-29T02:44:12.504Z,8.80
2022-11-29T02:46:42.595Z,6.68
2022-11-29T02:49:34.730Z,7.47
2022-11-29T02:52:03.167Z,5.68
2022-11-29T02:54:46.617Z,6.93
2022-11-29T02:57:13.860Z,7.03
2022-11-29T03:00:05.767Z,7.55
2022-11-29T03:02:41.412Z,6.70
2022-11-29T03:05:27.091Z,7.57
2022-11-29T03:07:56.245Z,6.22
2022-11-29T03:10:39.549Z,6.57
2022-11-29T03:13:32.213Z,7.43
2022-11-29T03:16:04.961Z,6.95
2022-11-29T03:18:38.187Z,7.83
2022-11-29T03:21:25.027Z,8.02
2022-11-29T03:23:55.247Z,6.72
2022-11-29T03:26:44.394Z,7.20
2022-11-29T03:29:33.818Z,7.60
2022-11-29T03:32:06.205Z,6.78
2022-11-29T03:35:03.614Z,7.28
2022-11-29T03:38:09.178Z,6.85
2022-11-29T03:40:41.104Z,6.85
2022-11-29T03:43:17.408Z,10.85
2022-11-29T03:46:25.789Z,7.03
2022-11-29T03:48:56.657Z,7.63
2022-11-29T03:51:45.802Z,7.25
2022-11-29T03:54:22.594Z,7.40
2022-11-29T03:56:49.965Z,8.50
2022-11-29T03:59:38.878Z,6.40
2022-11-29T04:02:43.003Z,6.18
2022-11-29T04:05:22.491Z,5.43
2022-11-29T04:08:07.801Z,5.82
2022-11-29T04:10:47.654Z,5.72
2022-11-29T04:13:39.565Z,6.72
2022-11-29T04:16:15.301Z,7.47
2022-11-29T04:19:11.132Z,8.48
2022-11-29T04:21:55.111Z,9.85
2022-11-29T04:27:04.344Z,7.80
2022-11-29T04:29:59.563Z,6.13
2022-11-29T04:33:01.735Z,7.10
2022-11-29T04:35:51.849Z,6.82
2022-11-29T04:38:37.899Z,9.38
2022-11-29T04:41:07.946Z,8.10
2022-11-29T04:43:53.550Z,6.93
2022-11-29T04:46:32.750Z,6.07
2022-11-29T04:49:05.572Z,7.60
2022-11-29T04:52:00.776Z,8.10
2022-11-29T04:54:33.592Z,6.15
2022-11-29T04:57:04.644Z,7.17
2022-11-29T04:59:41.297Z,6.10
2022-11-29T05:02:34.909Z,6.72
2022-11-29T05:05:11.520Z,6.25
2022-11-29T05:07:44.621Z,5.22
2022-11-29T05:10:28.401Z,7.10
2022-11-29T05:13:09.915Z,7.65
2022-11-29T05:16:00.578Z,6.28
2022-11-29T05:18:57.616Z,5.93
2022-11-29T05:21:40.544Z,6.88
2022-11-29T05:24:27.622Z,6.18
2022-11-29T05:27:16.100Z,7.60
2022-11-29T05:29:58.563Z,8.02
2022-11-29T05:32:34.620Z,6.97
2022-11-29T05:35:29.329Z,7.10
2022-11-29T05:38:11.279Z,8.68
2022-11-29T05:41:02.355Z,7.07
2022-11-29T05:44:06.546Z,7.45
2022-11-29T05:46:55.977Z,7.45
2022-11-29T05:49:41.642Z,6.45
2022-11-29T05:52:27.072Z,7.22
2022-11-29T05:55:16.716Z,6.72
2022-11-29T05:58:03.066Z,8.07
2022-11-29T06:00:41.150Z,6.22
2022-11-29T06:03:16.425Z,7.05
2022-11-29T06:06:00.920Z,5.97
2022-11-29T06:08:42.503Z,7.10
2022-11-29T06:11:44.903Z,7.75
2022-11-29T06:14:27.484Z,6.30
2022-11-29T06:16:57.346Z,9.07
2022-11-29T06:19:39.667Z,6.30
2022-11-29T06:22:40.304Z,6.78
2022-11-29T06:25:34.168Z,8.20
2022-11-29T06:28:28.552Z,6.65
2022-11-29T06:31:00.850Z,6.28
2022-11-29T06:33:42.552Z,7.72
2022-11-29T06:36:19.147Z,10.02
2022-11-29T06:38:47.925Z,7.32
2022-11-29T06:41:24.445Z,8.88
2022-11-29T06:44:03.506Z,6.85
2022-11-29T06:46:39.124Z,7.05
2022-11-29T06:49:35.253Z,6.50
2022-11-29T06:52:43.851Z,8.00
2022-11-29T06:55:50.134Z,7.35
2022-11-29T06:58:36.651Z,11.20
2022-11-29T07:01:27.732Z,9.65
2022-11-29T07:04:29.758Z,8.20
2022-11-29T07:06:57.273Z,7.50
2022-11-29T07:09:27.326Z,7.55
2022-11-29T07:11:59.339Z,8.23
2022-11-29T07:14:27.833Z,9.20
2022-11-29T07:17:20.916Z,10.63
2022-11-29T07:20:10.236Z,11.38
2022-11-29T07:23:04.782Z,9.25
2022-11-29T07:26:00.193Z,12.20
2022-11-29T07:28:30.001Z,9.63
2022-11-29T07:31:17.149Z,8.13
2022-11-29T07:34:07.933Z,7.72
2022-11-29T07:36:54.561Z,9.73
2022-11-29T07:39:24.566Z,8.60
2022-11-29T07:42:08.936Z,8.57
2022-11-29T07:44:40.160Z,7.07
2022-11-29T07:47:08.831Z,6.25
2022-11-29T07:49:35.802Z,7.13
2022-11-29T07:52:03.945Z,9.23
2022-11-29T07:54:30.995Z,9.68
2022-11-29T07:56:58.037Z,9.20
2022-11-29T07:59:35.838Z,8.95
2022-11-29T08:02:11.709Z,7.23
2022-11-29T08:04:44.418Z,8.02
2022-11-29T08:07:11.738Z,6.53
2022-11-29T08:09:38.707Z,6.07
2022-11-29T08:12:06.096Z,6.15
2022-11-29T08:14:35.199Z,6.38
2022-11-29T08:17:04.557Z,8.35
2022-11-29T08:19:35.966Z,8.25
2022-11-29T08:22:03.099Z,9.27
2022-11-29T08:24:33.076Z,6.63
2022-11-29T08:27:00.192Z,6.32
2022-11-29T08:29:29.261Z,7.70
2022-11-29T08:31:56.604Z,8.50
2022-11-29T08:34:26.372Z,9.07
2022-11-29T08:36:55.516Z,7.85
2022-11-29T08:39:23.072Z,7.88
2022-11-29T08:41:50.459Z,7.57
2022-11-29T08:44:19.729Z,6.97
2022-11-29T08:47:07.444Z,8.48
2022-11-29T08:49:34.599Z,7.55
2022-11-29T08:52:20.021Z,8.77
2022-11-29T08:54:51.049Z,8.07
2022-11-29T08:57:39.183Z,8.10
2022-11-29T09:00:07.928Z,8.63
2022-11-29T09:02:35.796Z,7.95
2022-11-29T09:05:03.562Z,7.88
2022-11-29T09:07:30.732Z,8.55
2022-11-29T09:10:05.092Z,7.03
2022-11-29T09:12:39.699Z,8.32
2022-11-29T09:15:08.563Z,7.75
2022-11-29T09:17:35.757Z,9.55
2022-11-29T09:20:02.893Z,8.60
2022-11-29T09:22:32.395Z,8.73
2022-11-29T09:25:02.623Z,8.02
2022-11-29T09:27:34.005Z,7.57
2022-11-29T09:30:01.235Z,9.43
2022-11-29T09:32:28.409Z,9.20
2022-11-29T09:35:02.694Z,8.10
2022-11-29T09:37:52.592Z,7.68
2022-11-29T09:40:21.532Z,8.63
2022-11-29T09:43:15.833Z,8.20
2022-11-29T09:45:51.370Z,7.88
2022-11-29T09:48:35.960Z,8.45
2022-11-29T09:51:33.275Z,8.93
2022-11-29T09:54:39.857Z,7.93
2022-11-29T10:00:18.155Z,8.63
2022-11-29T10:03:02.685Z,9.45
2022-11-29T10:08:43.528Z,9.27
2022-11-29T10:11:41.363Z,8.90
2022-11-29T10:15:20.111Z,8.00
2022-11-29T10:27:09.729Z,8.48
2022-11-29T10:30:00.100Z,8.77
2022-11-29T10:32:33.522Z,9.43
2022-11-29T10:35:39.278Z,8.70
2022-11-29T10:38:30.815Z,8.00
2022-11-29T10:41:19.677Z,9.88
2022-11-29T10:43:49.457Z,9.27
2022-11-29T10:46:28.832Z,9.15
2022-11-29T10:49:00.232Z,10.32
2022-11-29T10:54:17.493Z,8.75
2022-11-29T10:56:44.475Z,8.60
2022-11-29T10:59:23.116Z,9.20
2022-11-29T11:01:50.291Z,9.27
2022-11-29T11:04:28.139Z,9.35
2022-11-29T11:06:57.387Z,8.95
2022-11-29T11:09:35.368Z,9.82
2022-11-29T11:12:17.130Z,8.93
2022-11-29T11:14:48.625Z,10.57
2022-11-29T11:17:32.894Z,10.43
2022-11-29T11:20:05.941Z,9.02
2022-11-29T11:22:33.370Z,8.63
2022-11-29T11:25:02.378Z,9.02
2022-11-29T11:27:35.049Z,8.98
2022-11-29T11:30:05.275Z,8.85
2022-11-29T11:32:32.562Z,8.80
2022-11-29T11:35:01.199Z,9.50
2022-11-29T11:37:32.526Z,8.07
2022-11-29T11:40:01.522Z,10.18
2022-11-29T11:42:39.350Z,9.27
2022-11-29T11:45:12.721Z,8.35
2022-11-29T11:47:51.005Z,8.93
2022-11-29T11:50:29.351Z,9.00
2022-11-29T11:52:58.249Z,8.10
2022-11-29T11:55:38.232Z,10.02
2022-11-29T11:58:09.713Z,9.05
2022-11-29T12:01:03.856Z,10.65
2022-11-29T12:03:33.371Z,10.40
2022-11-29T12:06:06.627Z,9.50
2022-11-29T12:08:33.720Z,9.27
2022-11-29T12:11:06.999Z,9.75
2022-11-29T12:13:36.356Z,8.20
2022-11-29T12:16:10.208Z,9.68
2022-11-29T12:18:47.407Z,9.45
2022-11-29T12:21:21.865Z,8.90
2022-11-29T12:23:59.010Z,9.80
2022-11-29T12:26:55.834Z,8.93
2022-11-29T12:29:17.534Z,8.77
2022-11-29T12:31:57.015Z,8.05
2022-11-29T12:34:42.962Z,9.18
2022-11-29T12:37:35.164Z,8.88
2022-11-29T12:40:26.625Z,9.43
2022-11-29T12:43:34.185Z,7.15
2022-11-29T12:46:12.351Z,7.55
2022-11-29T12:49:03.798Z,6.68
2022-11-29T12:51:39.851Z,7.65
2022-11-29T12:54:16.058Z,7.65
2022-11-29T12:56:52.458Z,7.75
2022-11-29T12:59:34.431Z,7.85
2022-11-29T13:02:36.760Z,7.28
2022-11-29T13:05:12.645Z,7.85
2022-11-29T13:08:20.083Z,6.88
2022-11-29T13:10:58.104Z,7.13
2022-11-29T13:13:35.361Z,8.35
2022-11-29T13:16:31.854Z,7.85
2022-11-29T13:19:08.457Z,8.32
2022-11-29T13:22:17.282Z,6.43
2022-11-29T13:24:52.415Z,8.68
2022-11-29T13:27:31.500Z,8.02
2022-11-29T13:29:59.866Z,7.60
2022-11-29T13:32:40.419Z,8.48
2022-11-29T13:35:29.708Z,8.52
2022-11-29T13:38:03.980Z,8.32
2022-11-29T13:40:56.097Z,7.70
2022-11-29T13:43:36.877Z,8.98
2022-11-29T13:46:06.792Z,8.18
2022-11-29T13:48:35.243Z,8.57
2022-11-29T13:51:21.015Z,9.00
2022-11-29T13:53:49.325Z,10.05
2022-11-29T13:56:47.773Z,9.60
2022-11-29T13:59:21.343Z,8.65
2022-11-29T14:01:54.195Z,8.88
2022-11-29T14:04:35.843Z,9.57
2022-11-29T14:07:11.666Z,9.23
2022-11-29T14:09:58.169Z,9.40
2022-11-29T14:12:41.868Z,10.48
2022-11-29T14:15:31.999Z,10.55
2022-11-29T14:18:09.134Z,10.70
2022-11-29T14:20:53.419Z,8.82
2022-11-29T14:23:37.551Z,8.85
2022-11-29T14:26:06.710Z,11.25
2022-11-29T14:28:40.628Z,9.70
2022-11-29T14:31:08.433Z,11.02
2022-11-29T14:33:47.131Z,11.23
2022-11-29T14:36:30.101Z,11.68
2022-11-29T14:39:22.057Z,11.43
2022-11-29T14:42:06.438Z,10.05
2022-11-29T14:44:33.908Z,12.30
2022-11-29T14:47:07.825Z,13.25
2022-11-29T14:49:40.141Z,12.82
2022-11-29T14:52:09.564Z,11.88
2022-11-29T14:54:37.122Z,11.40
2022-11-29T14:57:38.400Z,13.00
2022-11-29T15:00:12.221Z,10.32
2022-11-29T15:02:41.902Z,11.38
2022-11-29T15:05:15.074Z,10.52
2022-11-29T15:07:53.491Z,10.35
2022-11-29T15:10:25.906Z,12.00
2022-11-29T15:12:52.956Z,9.52
2022-11-29T15:15:22.907Z,11.32
2022-11-29T15:17:53.664Z,9.40
2022-11-29T15:20:36.113Z,10.05
2022-11-29T15:23:04.810Z,9.25
2022-11-29T15:25:32.121Z,8.93
2022-11-29T15:28:03.224Z,9.43
2022-11-29T15:30:38.578Z,9.52
2022-11-29T15:33:06.843Z,12.00
2022-11-29T15:35:34.742Z,9.98
2022-11-29T15:38:02.138Z,10.50
2022-11-29T15:40:37.319Z,11.90
2022-11-29T15:43:20.492Z,12.10
2022-11-29T15:45:57.009Z,11.60
2022-11-29T15:48:25.733Z,10.50
2022-11-29T15:50:54.067Z,12.20
2022-11-29T15:53:45.173Z,11.98
2022-11-29T15:56:25.417Z,12.23
2022-11-29T15:58:52.705Z,10.65
2022-11-29T16:01:20.856Z,12.43
2022-11-29T16:03:50.057Z,11.57
2022-11-29T16:06:34.366Z,11.95
2022-11-29T16:09:01.331Z,12.82
2022-11-29T16:11:28.795Z,12.38
2022-11-29T16:14:10.981Z,11.65
2022-11-29T16:16:38.970Z,11.80
2022-11-29T16:19:34.916Z,10.00
2022-11-29T16:22:12.694Z,8.82
2022-11-29T16:24:49.589Z,9.50
2022-11-29T16:27:16.572Z,8.05
2022-11-29T16:29:47.742Z,7.07
2022-11-29T16:32:24.515Z,7.88
2022-11-29T16:34:51.498Z,9.57
2022-11-29T16:37:38.590Z,9.93
2022-11-29T16:40:06.394Z,10.77
2022-11-29T16:42:35.467Z,11.00
2022-11-29T16:45:07.704Z,9.90
2022-11-29T16:48:01.609Z,11.43
2022-11-29T16:50:31.632Z,12.52
2022-11-29T16:53:35.355Z,15.80
2022-11-29T16:56:02.825Z,16.33
2022-11-29T16:58:29.699Z,16.20
2022-11-29T17:00:56.722Z,16.17
2022-11-29T17:03:23.724Z,16.38
2022-11-29T17:05:50.806Z,16.55
2022-11-29T17:08:17.938Z,15.63
2022-11-29T17:10:44.902Z,14.13
2022-11-29T17:13:11.890Z,13.00
2022-11-29T17:15:39.117Z,13.60
2022-11-29T17:18:06.113Z,14.73
2022-11-29T17:20:33.135Z,12.85
2022-11-29T17:23:00.153Z,12.30
2022-11-29T17:25:27.190Z,11.07
2022-11-29T17:27:54.158Z,12.32
2022-11-29T17:30:21.220Z,10.07
2022-11-29T17:32:48.234Z,11.13
2022-11-29T17:35:15.658Z,9.07
2022-11-29T17:37:42.645Z,11.50
2022-11-29T17:40:10.049Z,12.55
2022-11-29T17:42:37.122Z,14.32
2022-11-29T17:45:04.740Z,15.07
2022-11-29T17:47:32.756Z,14.45
2022-11-29T17:49:59.736Z,15.30
2022-11-29T17:52:26.768Z,13.88
2022-11-29T17:54:53.764Z,13.25
2022-11-29T17:57:20.679Z,14.10
2022-11-29T17:59:47.757Z,12.60
2022-11-29T18:02:14.850Z,13.68
2022-11-29T18:04:44.114Z,13.27
2022-11-29T18:07:13.198Z,13.10
2022-11-29T18:09:40.264Z,12.43
2022-11-29T18:12:07.253Z,13.45
2022-11-29T18:14:34.426Z,12.82
2022-11-29T18:17:01.390Z,11.80
2022-11-29T18:19:29.959Z,12.55
2022-11-29T18:21:56.979Z,13.13
2022-11-29T18:24:23.986Z,13.10
2022-11-29T18:26:50.914Z,13.80
2022-11-29T18:29:17.885Z,12.10
2022-11-29T18:31:45.170Z,12.05
2022-11-29T18:34:13.258Z,12.00
2022-11-29T18:36:44.664Z,13.25
2022-11-29T18:39:16.607Z,13.05
2022-11-29T18:41:46.179Z,13.18
2022-11-29T18:44:14.314Z,14.98
2022-11-29T18:46:43.183Z,14.02
2022-11-29T18:49:11.577Z,13.32
2022-11-29T18:51:38.743Z,13.85
2022-11-29T18:54:06.003Z,12.60
2022-11-29T18:56:34.589Z,13.93
2022-11-29T18:59:06.510Z,12.55
2022-11-29T19:01:41.000Z,12.68
2022-11-29T19:04:13.180Z,13.35
2022-11-29T19:06:40.444Z,12.25
2022-11-29T19:09:12.163Z,11.90
2022-11-29T19:11:39.222Z,12.95
2022-11-29T19:14:11.591Z,12.85
2022-11-29T19:16:40.117Z,13.15
2022-11-29T19:19:07.239Z,13.77
2022-11-29T19:21:34.806Z,14.05
2022-11-29T19:24:03.221Z,12.30
2022-11-29T19:26:30.774Z,15.32
2022-11-29T19:28:57.841Z,15.93
2022-11-29T19:31:25.373Z,14.90
2022-11-29T19:33:55.516Z,16.70
2022-11-29T19:36:26.701Z,16.00
2022-11-29T19:38:54.550Z,14.07
2022-11-29T19:41:28.434Z,18.10
2022-11-29T19:44:00.329Z,14.98
2022-11-29T19:46:29.790Z,16.13
2022-11-29T19:48:56.980Z,16.23
2022-11-29T19:51:24.325Z,17.10
2022-11-29T19:53:55.393Z,17.95
2022-11-29T19:56:22.594Z,18.52
2022-11-29T19:58:49.569Z,16.20
2022-11-29T20:01:22.549Z,18.88
2022-11-29T20:03:49.832Z,17.52
2022-11-29T20:06:16.929Z,18.58
2022-11-29T20:08:44.201Z,16.30
2022-11-29T20:11:13.433Z,15.85
2022-11-29T20:13:47.057Z,17.60
2022-11-29T20:16:17.263Z,19.35
2022-11-29T20:18:50.992Z,17.10
2022-11-29T20:21:24.002Z,19.08
2022-11-29T20:23:58.334Z,16.08
2022-11-29T20:26:27.898Z,20.40
2022-11-29T20:28:58.317Z,22.20
2022-11-29T20:31:30.339Z,20.27
2022-11-29T20:33:59.512Z,20.55
2022-11-29T20:36:43.779Z,18.73
2022-11-29T20:39:47.881Z,18.15
2022-11-29T20:42:44.976Z,17.75
2022-11-29T20:45:14.194Z,15.07
2022-11-29T20:47:54.490Z,15.23
2022-11-29T20:50:26.283Z,13.38
2022-11-29T20:53:13.344Z,13.57
2022-11-29T20:55:46.323Z,13.38
2022-11-29T20:58:19.700Z,13.10
2022-11-29T21:00:47.145Z,13.52
2022-11-29T21:03:19.075Z,13.32
2022-11-29T21:05:46.808Z,16.88
2022-11-29T21:08:16.952Z,14.85
2022-11-29T21:10:46.405Z,14.27
2022-11-29T21:13:16.186Z,13.50
2022-11-29T21:15:44.053Z,14.15
2022-11-29T21:18:24.875Z,17.67
2022-11-29T21:21:01.161Z,17.50
2022-11-29T21:23:47.513Z,18.05
2022-11-29T21:26:37.179Z,18.13
2022-11-29T21:29:10.129Z,15.82
2022-11-29T21:31:41.327Z,18.70
2022-11-29T21:34:09.039Z,19.73
2022-11-29T21:36:36.777Z,19.02
2022-11-29T21:39:05.479Z,17.50
2022-11-29T21:41:34.873Z,17.20
2022-11-29T21:44:07.436Z,19.42
2022-11-29T21:46:34.968Z,18.80
2022-11-29T21:49:02.190Z,17.17
2022-11-29T21:51:29.114Z,17.52
2022-11-29T21:53:56.012Z,18.92
2022-11-29T21:56:23.055Z,19.85
2022-11-29T21:58:49.982Z,19.00
2022-11-29T22:01:18.636Z,22.00
2022-11-29T22:03:46.007Z,20.35
2022-11-29T22:06:15.001Z,19.48
2022-11-29T22:08:42.185Z,18.17
2022-11-29T22:11:10.793Z,19.48
2022-11-29T22:13:58.473Z,19.65
2022-11-29T22:16:25.523Z,19.73
2022-11-29T22:18:52.574Z,20.17
2022-11-29T22:21:19.560Z,20.48
2022-11-29T22:23:46.537Z,17.50
2022-11-29T22:26:13.530Z,18.52
2022-11-29T22:28:40.498Z,19.67
2022-11-29T22:31:09.386Z,17.95
2022-11-29T22:33:36.416Z,17.77
2022-11-29T22:36:08.032Z,19.38
2022-11-29T22:38:35.167Z,19.75
2022-11-29T22:41:06.801Z,18.38
2022-11-29T22:43:33.889Z,21.38
2022-11-29T22:46:15.118Z,19.02
2022-11-29T22:48:43.016Z,16.83
2022-11-29T22:51:11.083Z,16.45
2022-11-29T22:53:39.177Z,16.55
2022-11-29T22:56:07.708Z,19.00
2022-11-29T22:58:34.750Z,14.65
2022-11-29T23:01:21.718Z,16.40
2022-11-29T23:03:53.865Z,16.27
2022-11-29T23:06:25.442Z,19.92
2022-11-29T23:08:53.506Z,18.83
2022-11-29T23:11:22.629Z,19.42
2022-11-29T23:13:49.645Z,18.85
2022-11-29T23:16:18.247Z,19.25
2022-11-29T23:18:48.563Z,18.02
2022-11-29T23:21:17.634Z,18.50
2022-11-29T23:23:44.699Z,21.00
2022-11-29T23:26:22.624Z,18.35
2022-11-29T23:28:49.693Z,18.00
2022-11-29T23:31:16.877Z,22.80
2022-11-29T23:33:44.259Z,18.13
2022-11-29T23:36:11.675Z,20.17
2022-11-29T23:38:38.679Z,20.65
2022-11-29T23:41:06.630Z,17.95
2022-11-29T23:43:34.573Z,18.92
2022-11-29T23:46:08.868Z,16.88
2022-11-29T23:48:35.989Z,18.42
2022-11-29T23:51:02.968Z,18.15
2022-11-29T23:53:29.931Z,18.50
2022-11-29T23:56:01.171Z,17.83
2022-11-29T23:58:28.840Z,20.60
